Terminal Aerodrome Forecast
Issued by NWS

Home | Current Version | Previous Version | Text Only | Print | Product List | Glossary On
Versions: 1 2 3 4 5 6 7 8 9 10 11 12 13 14 15 16
411
FTUS41 KCAR 221729
TAFHUL
TAF
KHUL 221729Z 2218/2318 VRB03KT P6SM VCSH OVC070
     FM222100 VRB02KT 5SM -RA OVC025
     FM222200 VRB02KT 3SM -RA OVC008
     FM230100 34009KT 1SM -SN OVC003
     FM230600 33013G22KT P6SM OVC015
     FM230900 32013G22KT P6SM SCT250=

USA.gov is the U.S. government's official web portal to all federal, state and local government web resources and services.